Time;durP1;ratioP1;P1;durP2;ratioP2;P2;SDS_P1;SDS_P2;PMS_P1;PMS_P2;Temp;Humidity;BMP_temperature;BMP_pressure;BME280_temperature;BME280_humidity;BME280_pressure;Samples;Min_cycle;Max_cycle;Signal;HPM_P1;HPM_P2
2023/04/04 00:00:47;;;;;;;0.20;0.20;;;1.70;99.90;;;;;;5003060;28;20032;-76
2023/04/04 00:03:14;;;;;;;0.95;0.95;;;1.60;99.90;;;;;;5026645;28;20014;-77
2023/04/04 00:05:39;;;;;;;0.10;0.10;;;1.60;99.90;;;;;;5024257;28;20045;-77
2023/04/04 00:08:06;;;;;;;0.20;0.20;;;1.60;99.90;;;;;;5006691;28;20021;-77
2023/04/04 00:10:37;;;;;;;0.20;0.20;;;1.50;99.90;;;;;;5005233;28;20077;-77
2023/04/04 00:13:12;;;;;;;0.20;0.20;;;1.50;99.90;;;;;;5022389;28;20026;-77
2023/04/04 00:15:54;;;;;;;0.10;0.10;;;4.60;99.90;;;;;;5023794;28;20038;-77
2023/04/04 00:18:20;;;;;;;0.20;0.20;;;1.60;99.90;;;;;;5024305;28;20038;-76
2023/04/04 00:20:46;;;;;;;0.20;0.20;;;1.50;99.90;;;;;;5009683;28;20024;-77
2023/04/04 00:23:12;;;;;;;0.20;0.20;;;1.40;99.90;;;;;;5018591;28;20080;-76
2023/04/04 00:25:37;;;;;;;0.20;0.20;;;1.40;99.90;;;;;;5029665;28;20603;-77
2023/04/04 00:28:06;;;;;;;0.20;0.20;;;2.50;99.90;;;;;;5028237;28;20003;-77
2023/04/04 00:30:33;;;;;;;0.10;0.10;;;1.40;99.90;;;;;;5011804;28;20014;-77
2023/04/04 00:33:03;;;;;;;6.53;6.32;;;1.40;99.90;;;;;;5038747;28;20030;-76
2023/04/04 00:35:29;;;;;;;0.20;0.20;;;1.30;99.90;;;;;;5044308;28;20009;-77
2023/04/04 00:37:55;;;;;;;0.20;0.20;;;1.40;99.90;;;;;;5047365;28;20044;-77
2023/04/04 00:40:21;;;;;;;0.20;0.20;;;1.40;99.90;;;;;;5032700;28;20538;-77
2023/04/04 00:42:47;;;;;;;0.10;0.10;;;1.40;99.90;;;;;;5040874;28;20563;-77
2023/04/04 00:45:12;;;;;;;0.38;0.38;;;1.40;99.90;;;;;;5022035;28;20025;-77
2023/04/04 00:47:42;;;;;;;0.20;0.20;;;1.30;99.90;;;;;;5022819;28;20116;-77
2023/04/04 00:50:08;;;;;;;0.20;0.20;;;1.30;99.90;;;;;;5023410;28;20021;-77
2023/04/04 00:52:33;;;;;;;0.20;0.20;;;1.30;99.90;;;;;;5022685;28;20036;-77
2023/04/04 00:55:00;;;;;;;0.20;0.20;;;1.30;99.90;;;;;;5023280;28;20021;-77
2023/04/04 00:57:28;;;;;;;0.20;0.20;;;1.30;99.90;;;;;;5022344;28;20024;-77
2023/04/04 00:59:56;;;;;;;0.20;0.20;;;1.30;99.90;;;;;;5023195;28;20691;-77
2023/04/04 01:02:25;;;;;;;0.95;0.95;;;1.30;99.90;;;;;;5022437;28;20703;-77
2023/04/04 01:04:55;;;;;;;0.20;0.20;;;1.30;99.90;;;;;;5022628;28;20028;-77
2023/04/04 01:07:21;;;;;;;0.20;0.20;;;1.30;99.90;;;;;;5005468;28;20083;-77
2023/04/04 01:09:59;;;;;;;0.17;0.17;;;1.30;99.90;;;;;;5022492;28;20411;-77
2023/04/04 01:12:30;;;;;;;0.20;0.20;;;1.40;99.90;;;;;;5023442;28;20108;-77
2023/04/04 01:14:56;;;;;;;0.10;0.10;;;;;;;;;;5021131;28;20104;-78
2023/04/04 01:17:22;;;;;;;0.20;0.20;;;1.50;99.90;;;;;;5042085;28;20026;-77
2023/04/04 01:20:14;;;;;;;0.10;0.10;;;1.50;99.90;;;;;;5043253;28;20021;-77
2023/04/04 01:22:42;;;;;;;0.20;0.20;;;1.50;99.90;;;;;;5040787;28;20092;-77
2023/04/04 01:25:08;;;;;;;0.20;0.20;;;1.60;99.90;;;;;;5025511;28;20052;-77
2023/04/04 01:27:34;;;;;;;0.20;0.20;;;1.60;99.90;;;;;;5044875;28;20021;-77
2023/04/04 01:30:02;;;;;;;0.10;0.10;;;1.60;99.90;;;;;;5043546;28;20018;-77
2023/04/04 01:32:45;;;;;;;0.20;0.20;;;1.60;99.90;;;;;;5043693;28;20022;-77
2023/04/04 01:35:26;;;;;;;0.20;0.20;;;1.70;99.90;;;;;;5025292;28;20040;-77
2023/04/04 01:38:00;;;;;;;0.20;0.20;;;1.70;99.90;;;;;;5028126;28;20021;-77
2023/04/04 01:40:33;;;;;;;0.20;0.20;;;1.70;99.90;;;;;;5030219;28;20032;-78
2023/04/04 01:43:00;;;;;;;0.20;0.20;;;1.70;99.90;;;;;;5042500;28;20033;-78
2023/04/04 01:45:28;;;;;;;0.10;0.10;;;1.70;99.90;;;;;;5026902;28;20112;-77
2023/04/04 01:47:58;;;;;;;0.20;0.20;;;1.70;99.90;;;;;;5025754;28;20053;-77
2023/04/04 01:50:24;;;;;;;3.30;3.10;;;1.70;99.90;;;;;;5027807;28;20052;-77
2023/04/04 01:52:51;;;;;;;0.10;0.10;;;1.70;99.90;;;;;;5028976;28;20026;-77
2023/04/04 01:55:17;;;;;;;0.10;0.10;;;1.60;99.90;;;;;;5030441;28;20109;-78
2023/04/04 01:57:50;;;;;;;0.10;0.10;;;1.50;99.90;;;;;;5023707;28;20026;-77
2023/04/04 02:00:19;;;;;;;0.10;0.10;;;;;;;;;;5008939;28;20057;-78
2023/04/04 02:02:48;;;;;;;0.20;0.20;;;1.50;99.90;;;;;;5026428;28;20030;-78
2023/04/04 02:08:24;;;;;;;0.20;0.20;;;;;;;;;;5022060;28;20737;-78
2023/04/04 02:10:51;;;;;;;0.20;0.20;;;;;;;;;;5021775;28;20032;-77
2023/04/04 02:13:17;;;;;;;0.10;0.10;;;;;;;;;;5007659;28;20052;-77
2023/04/04 02:15:49;;;;;;;0.20;0.20;;;1.40;99.90;;;;;;5029174;28;20099;-77
2023/04/04 02:18:18;;;;;;;0.17;0.17;;;1.40;99.90;;;;;;5018267;28;20107;-77
2023/04/04 02:20:44;;;;;;;6.55;6.07;;;;;;;;;;5020618;28;20013;-77
2023/04/04 02:23:15;;;;;;;0.10;0.10;;;1.30;99.90;;;;;;5035552;28;20033;-78
2023/04/04 02:25:48;;;;;;;0.20;0.20;;;1.30;99.90;;;;;;5022543;28;20022;-78
2023/04/04 02:28:15;;;;;;;0.20;0.20;;;2.30;99.90;;;;;;5041509;28;20025;-77
2023/04/04 02:30:41;;;;;;;0.20;0.20;;;1.30;99.90;;;;;;5026422;28;20048;-78
2023/04/04 02:33:11;;;;;;;0.75;0.75;;;1.30;99.90;;;;;;5004771;28;20030;-77
2023/04/04 02:35:54;;;;;;;0.20;0.20;;;1.30;99.90;;;;;;5001485;28;20082;-77
2023/04/04 02:38:42;;;;;;;0.20;0.20;;;1.50;99.90;;;;;;5001530;28;20042;-77
2023/04/04 02:41:16;;;;;;;0.20;0.20;;;1.60;99.90;;;;;;5000352;28;20571;-77
2023/04/04 02:43:45;;;;;;;0.20;0.20;;;1.50;99.90;;;;;;5002742;28;20036;-78
2023/04/04 02:46:16;;;;;;;0.10;0.10;;;1.30;99.90;;;;;;5003577;28;20036;-78
2023/04/04 02:48:45;;;;;;;0.20;0.20;;;1.30;99.90;;;;;;4995282;28;20046;-77
2023/04/04 02:51:15;;;;;;;0.20;0.20;;;1.40;99.90;;;;;;4998957;28;20065;-76
2023/04/04 02:53:42;;;;;;;0.20;0.20;;;;;;;;;;5005005;28;20599;-77
2023/04/04 02:56:07;;;;;;;0.20;0.20;;;1.40;99.90;;;;;;4984357;28;20037;-77
2023/04/04 02:58:34;;;;;;;0.17;0.17;;;;;;;;;;4998602;28;20038;-77
2023/04/04 03:00:59;;;;;;;0.20;0.20;;;1.30;99.90;;;;;;4981417;28;20069;-77
2023/04/04 03:03:28;;;;;;;0.10;0.10;;;1.20;99.90;;;;;;4990439;28;20057;-77
2023/04/04 03:05:54;;;;;;;0.20;0.20;;;1.10;99.90;;;;;;5008261;28;20024;-77
2023/04/04 03:08:25;;;;;;;0.20;0.20;;;1.10;99.90;;;;;;5021815;28;20024;-77
2023/04/04 03:10:51;;;;;;;0.20;0.20;;;1.20;99.90;;;;;;5004035;28;20026;-77
2023/04/04 03:13:22;;;;;;;0.20;0.20;;;;;;;;;;5021071;28;20091;-77
2023/04/04 03:15:51;;;;;;;0.25;0.25;;;1.10;99.90;;;;;;5022483;28;20038;-77
2023/04/04 03:18:17;;;;;;;0.15;0.15;;;0.90;99.90;;;;;;5023454;28;20447;-77
2023/04/04 03:20:46;;;;;;;0.20;0.20;;;0.80;99.90;;;;;;5004585;28;20057;-77
2023/04/04 03:23:15;;;;;;;0.10;0.10;;;-0.30;99.90;;;;;;5003309;28;20025;-77
2023/04/04 03:25:41;;;;;;;0.20;0.20;;;0.80;99.90;;;;;;5019820;28;20664;-77
2023/04/04 03:28:08;;;;;;;0.20;0.20;;;0.80;99.90;;;;;;5020281;28;20656;-78
2023/04/04 03:30:34;;;;;;;0.20;0.20;;;0.70;99.90;;;;;;5020881;28;20026;-77
2023/04/04 03:33:06;;;;;;;0.20;0.20;;;1.60;99.90;;;;;;5020123;28;20431;-78
2023/04/04 03:35:33;;;;;;;0.20;0.20;;;0.50;99.90;;;;;;5019393;28;20023;-77
2023/04/04 03:38:02;;;;;;;0.20;0.20;;;0.40;99.90;;;;;;5023434;28;20507;-77
2023/04/04 03:40:28;;;;;;;0.10;0.10;;;0.40;99.90;;;;;;5003704;28;20578;-77
2023/04/04 03:42:55;;;;;;;0.20;0.20;;;0.30;99.90;;;;;;5020285;28;20057;-78
2023/04/04 03:45:21;;;;;;;0.20;0.20;;;0.40;99.90;;;;;;5025324;28;20026;-77
2023/04/04 03:47:47;;;;;;;0.20;0.20;;;0.40;99.90;;;;;;5006956;28;20108;-77
2023/04/04 03:50:12;;;;;;;0.10;0.10;;;0.40;99.90;;;;;;5007017;28;20071;-77
2023/04/04 03:52:39;;;;;;;0.10;0.10;;;0.40;99.90;;;;;;5008755;28;20041;-77
2023/04/04 03:55:06;;;;;;;0.20;0.20;;;0.40;99.90;;;;;;5009465;28;20037;-78
2023/04/04 03:57:35;;;;;;;0.20;0.20;;;0.30;99.90;;;;;;5009439;28;20025;-78
2023/04/04 04:00:02;;;;;;;0.20;0.20;;;0.40;99.90;;;;;;5011062;28;20083;-78
2023/04/04 04:02:27;;;;;;;0.20;0.20;;;0.40;99.90;;;;;;5022910;28;20033;-78
2023/04/04 04:04:53;;;;;;;0.20;0.20;;;0.30;99.90;;;;;;5023603;28;20021;-77
2023/04/04 04:07:21;;;;;;;0.20;0.20;;;0.30;99.90;;;;;;5023228;28;20029;-77
2023/04/04 04:09:47;;;;;;;0.20;0.20;;;0.30;99.90;;;;;;5023059;28;20029;-77
2023/04/04 04:12:13;;;;;;;0.20;0.20;;;0.30;99.90;;;;;;5023066;28;20021;-77
2023/04/04 04:15:05;;;;;;;0.20;0.20;;;0.30;99.90;;;;;;5039358;28;20082;-78
2023/04/04 04:17:37;;;;;;;0.10;0.10;;;0.30;99.90;;;;;;5028968;28;20033;-77
2023/04/04 04:20:03;;;;;;;0.10;0.10;;;0.40;99.90;;;;;;5032770;28;20013;-77
2023/04/04 04:22:29;;;;;;;0.20;0.20;;;0.30;99.90;;;;;;5030510;28;20034;-77
2023/04/04 04:24:55;;;;;;;0.20;0.20;;;0.30;99.90;;;;;;5032096;28;20519;-77
2023/04/04 04:27:25;;;;;;;0.20;0.20;;;0.40;99.90;;;;;;5031841;28;20053;-78
2023/04/04 04:29:51;;;;;;;0.20;0.20;;;0.40;99.90;;;;;;5051203;28;20101;-77
2023/04/04 04:32:17;;;;;;;0.20;0.20;;;0.40;99.90;;;;;;5049912;28;20013;-77
2023/04/04 04:34:46;;;;;;;0.20;0.20;;;0.40;99.90;;;;;;5030254;28;20083;-77
2023/04/04 04:37:15;;;;;;;0.10;0.10;;;;;;;;;;5054423;28;20017;-78
2023/04/04 04:39:40;;;;;;;0.10;0.10;;;0.30;99.90;;;;;;5035233;28;20097;-77
2023/04/04 04:42:13;;;;;;;0.20;0.20;;;0.30;99.90;;;;;;5054033;28;20569;-78
2023/04/04 04:44:39;;;;;;;0.10;0.10;;;0.30;99.90;;;;;;5043089;28;20025;-77
2023/04/04 04:47:17;;;;;;;0.20;0.20;;;0.20;99.90;;;;;;5038588;28;20026;-78
2023/04/04 04:49:48;;;;;;;0.20;0.20;;;-1.70;99.90;;;;;;5039728;28;20030;-78
2023/04/04 04:52:15;;;;;;;0.20;0.20;;;0.10;99.90;;;;;;5041657;28;20029;-78
2023/04/04 04:54:42;;;;;;;0.20;0.20;;;0.20;99.90;;;;;;5021937;28;20081;-79
2023/04/04 04:57:08;;;;;;;0.10;0.10;;;0.10;99.90;;;;;;5020982;28;20025;-78
2023/04/04 04:59:34;;;;;;;0.20;0.20;;;0.20;99.90;;;;;;5039320;28;20047;-77
2023/04/04 05:02:00;;;;;;;0.10;0.10;;;;;;;;;;5040631;28;20026;-77
2023/04/04 05:04:26;;;;;;;0.20;0.20;;;0.20;99.90;;;;;;5041525;28;20030;-78
2023/04/04 05:06:52;;;;;;;0.10;0.10;;;-0.60;99.90;;;;;;5022465;28;20022;-77
2023/04/04 05:09:18;;;;;;;0.20;0.20;;;;;;;;;;5021520;28;20021;-77
2023/04/04 05:11:47;;;;;;;0.10;0.10;;;0.10;99.90;;;;;;5024063;28;20074;-76
2023/04/04 05:14:14;;;;;;;0.20;0.20;;;;;;;;;;5037191;28;20097;-77
2023/04/04 05:16:40;;;;;;;0.10;0.10;;;0.00;99.90;;;;;;5031149;28;20099;-77
2023/04/04 05:19:05;;;;;;;0.20;0.20;;;0.00;99.90;;;;;;5029431;28;20029;-77
2023/04/04 05:21:34;;;;;;;0.20;0.20;;;0.00;99.90;;;;;;5016772;28;20036;-77
2023/04/04 05:24:00;;;;;;;0.20;0.20;;;0.10;99.90;;;;;;5035897;28;20040;-77
2023/04/04 05:26:27;;;;;;;0.20;0.20;;;0.00;99.90;;;;;;5013317;28;20033;-77
2023/04/04 05:28:54;;;;;;;0.20;0.20;;;;;;;;;;5022633;28;20040;-77
2023/04/04 05:31:21;;;;;;;0.20;0.20;;;-0.20;99.90;;;;;;5022041;28;20657;-77
2023/04/04 05:33:47;;;;;;;0.20;0.20;;;-0.20;99.90;;;;;;5021458;28;20795;-77
2023/04/04 05:36:13;;;;;;;0.20;0.20;;;-0.10;99.90;;;;;;5023330;28;20044;-77
2023/04/04 05:38:39;;;;;;;0.10;0.10;;;-0.10;99.90;;;;;;5023748;28;20052;-77
2023/04/04 05:41:05;;;;;;;0.20;0.20;;;-0.20;99.90;;;;;;5024541;28;20049;-77
2023/04/04 05:43:32;;;;;;;0.20;0.20;;;-0.20;99.90;;;;;;5022541;28;20769;-77
2023/04/04 05:45:58;;;;;;;0.20;0.20;;;-0.20;99.90;;;;;;5004764;28;20029;-77
2023/04/04 05:48:24;;;;;;;0.20;0.20;;;-0.20;99.90;;;;;;5025051;28;20013;-77
2023/04/04 05:50:49;;;;;;;0.20;0.20;;;-0.20;99.90;;;;;;5022600;28;20032;-77
2023/04/04 05:53:17;;;;;;;0.20;0.20;;;-0.30;99.90;;;;;;5021509;28;20478;-77
2023/04/04 05:55:42;;;;;;;0.20;0.20;;;-0.40;99.90;;;;;;5022959;28;20021;-76
2023/04/04 05:58:08;;;;;;;0.20;0.20;;;-0.40;99.90;;;;;;5022646;28;20029;-77
2023/04/04 06:00:35;;;;;;;0.20;0.20;;;-0.40;99.90;;;;;;5022736;28;20571;-77
2023/04/04 06:03:01;;;;;;;0.20;0.20;;;-0.30;99.90;;;;;;5022030;28;20022;-77
2023/04/04 06:05:27;;;;;;;0.60;0.60;;;;;;;;;;5022923;28;20044;-77
2023/04/04 06:07:53;;;;;;;0.20;0.20;;;-0.30;99.90;;;;;;5021603;28;20025;-76
2023/04/04 06:10:19;;;;;;;0.20;0.20;;;-0.30;99.90;;;;;;5007876;28;20033;-77
2023/04/04 06:12:45;;;;;;;0.20;0.20;;;-0.40;99.90;;;;;;5021798;28;20041;-77
2023/04/04 06:15:11;;;;;;;0.20;0.20;;;-0.50;99.90;;;;;;5022335;28;20561;-77
2023/04/04 06:17:36;;;;;;;0.20;0.20;;;-0.70;99.90;;;;;;5023607;28;20029;-77
2023/04/04 06:20:03;;;;;;;9.03;8.50;;;-0.40;99.90;;;;;;5022884;28;20100;-77
2023/04/04 06:22:31;;;;;;;0.20;0.20;;;-0.50;99.90;;;;;;5021398;28;20022;-76
2023/04/04 06:24:56;;;;;;;0.10;0.10;;;-0.40;99.90;;;;;;5021642;28;20029;-77
2023/04/04 06:27:24;;;;;;;0.10;0.10;;;-0.40;99.90;;;;;;5020709;28;20029;-77
2023/04/04 06:29:50;;;;;;;0.20;0.20;;;;;;;;;;5002504;28;20033;-77
2023/04/04 06:32:16;;;;;;;0.20;0.20;;;-0.40;99.90;;;;;;5003091;28;20691;-77
2023/04/04 06:34:42;;;;;;;0.20;0.20;;;-0.40;99.90;;;;;;5003666;28;20049;-77
2023/04/04 06:37:07;;;;;;;0.20;0.20;;;-0.30;99.90;;;;;;5021499;28;20017;-77
2023/04/04 06:39:34;;;;;;;0.20;0.20;;;-0.30;99.90;;;;;;5003843;28;20021;-76
2023/04/04 06:42:00;;;;;;;0.20;0.20;;;-0.30;99.90;;;;;;5004297;28;20017;-77
2023/04/04 06:44:26;;;;;;;0.20;0.20;;;-0.20;99.90;;;;;;5004458;28;20545;-77
2023/04/04 06:46:53;;;;;;;0.10;0.10;;;-0.20;99.90;;;;;;5004381;28;20020;-77
2023/04/04 06:49:20;;;;;;;0.20;0.20;;;-0.30;99.90;;;;;;5004919;28;20524;-77
2023/04/04 06:51:49;;;;;;;0.20;0.20;;;-0.30;99.90;;;;;;5021744;28;20018;-77
2023/04/04 06:54:15;;;;;;;0.20;0.20;;;-0.40;99.90;;;;;;5021227;28;20057;-77
2023/04/04 06:56:41;;;;;;;0.10;0.10;;;-0.20;99.90;;;;;;5021716;28;20010;-77
2023/04/04 06:59:10;;;;;;;0.20;0.20;;;-0.20;99.90;;;;;;5021448;28;20116;-77
2023/04/04 07:01:35;;;;;;;0.20;0.20;;;-0.20;99.90;;;;;;5021131;28;20013;-77
2023/04/04 07:04:05;;;;;;;0.20;0.20;;;0.00;99.90;;;;;;5020569;28;20423;-77
2023/04/04 07:06:32;;;;;;;0.10;0.10;;;0.00;99.90;;;;;;5023232;28;20117;-77
2023/04/04 07:09:00;;;;;;;0.17;0.17;;;0.10;99.90;;;;;;5023223;28;20018;-77
2023/04/04 07:11:26;;;;;;;0.10;0.10;;;0.10;99.90;;;;;;5021612;28;20030;-77
2023/04/04 07:13:52;;;;;;;0.20;0.20;;;0.20;99.90;;;;;;5004319;28;20041;-77
2023/04/04 07:16:18;;;;;;;0.10;0.10;;;0.20;99.90;;;;;;5001139;28;20674;-77
2023/04/04 07:18:45;;;;;;;0.20;0.20;;;0.00;99.90;;;;;;5001033;28;20038;-77
2023/04/04 07:21:12;;;;;;;0.20;0.20;;;-1.40;99.90;;;;;;5000897;28;20022;-77
2023/04/04 07:23:38;;;;;;;0.20;0.20;;;0.50;99.90;;;;;;5001264;28;20504;-77
2023/04/04 07:26:04;;;;;;;0.20;0.20;;;0.50;99.90;;;;;;5001093;28;20025;-77
2023/04/04 07:28:31;;;;;;;0.20;0.20;;;1.00;99.90;;;;;;5004719;28;20030;-76
2023/04/04 07:31:03;;;;;;;0.20;0.20;;;1.30;99.90;;;;;;5006211;28;20030;-77
2023/04/04 07:33:28;;;;;;;0.20;0.20;;;0.90;99.90;;;;;;5006389;28;20089;-77
2023/04/04 07:35:54;;;;;;;0.20;0.20;;;0.10;99.90;;;;;;5002726;28;20108;-77
2023/04/04 07:38:20;;;;;;;0.20;0.20;;;0.90;99.90;;;;;;5003972;28;20026;-76
2023/04/04 07:40:49;;;;;;;0.20;0.20;;;1.00;99.90;;;;;;5003949;28;20025;-76
2023/04/04 07:43:15;;;;;;;0.20;0.20;;;1.10;99.90;;;;;;5006591;28;20033;-76
2023/04/04 07:45:41;;;;;;;0.20;0.20;;;;;;;;;;5005504;28;20033;-76
2023/04/04 07:48:10;;;;;;;0.37;0.37;;;1.00;99.90;;;;;;5004506;28;20045;-76
2023/04/04 07:50:36;;;;;;;0.20;0.20;;;1.20;99.90;;;;;;5005115;28;20109;-76
2023/04/04 07:53:02;;;;;;;0.20;0.20;;;1.30;99.90;;;;;;5005542;28;20041;-77
2023/04/04 07:55:28;;;;;;;0.20;0.20;;;1.20;99.90;;;;;;5003579;28;20572;-76
2023/04/04 07:57:54;;;;;;;0.20;0.20;;;1.30;99.90;;;;;;5003751;28;20099;-77
2023/04/04 08:00:24;;;;;;;0.20;0.20;;;1.20;99.90;;;;;;5003242;28;20717;-77
2023/04/04 08:02:55;;;;;;;30.02;7.78;;;1.20;99.90;;;;;;5001430;28;20040;-76
2023/04/04 08:05:21;;;;;;;0.10;0.10;;;1.20;99.90;;;;;;5003557;28;20018;-76
2023/04/04 08:07:47;;;;;;;0.10;0.10;;;-0.70;99.90;;;;;;5003260;28;20101;-76
2023/04/04 08:10:16;;;;;;;0.10;0.10;;;1.20;99.90;;;;;;5003104;28;20660;-76
2023/04/04 08:12:43;;;;;;;0.10;0.10;;;1.20;99.90;;;;;;5002839;28;20037;-76
2023/04/04 08:15:09;;;;;;;0.20;0.20;;;1.00;99.90;;;;;;5002679;28;20708;-77
2023/04/04 08:17:36;;;;;;;0.17;0.17;;;1.00;99.90;;;;;;5003427;28;20041;-76
2023/04/04 08:20:03;;;;;;;0.20;0.20;;;1.00;99.90;;;;;;5005096;28;20025;-76
2023/04/04 08:22:30;;;;;;;0.10;0.10;;;1.10;99.90;;;;;;5004321;28;20022;-76
2023/04/04 08:24:55;;;;;;;0.20;0.20;;;1.30;99.90;;;;;;5002766;28;20026;-76
2023/04/04 08:27:21;;;;;;;0.20;0.20;;;1.30;99.90;;;;;;5004402;28;20568;-76
2023/04/04 08:29:47;;;;;;;0.10;0.10;;;1.40;99.90;;;;;;5006054;28;20086;-77
2023/04/04 08:32:15;;;;;;;0.17;0.17;;;1.40;99.90;;;;;;5005371;28;20565;-76
2023/04/04 08:34:41;;;;;;;0.10;0.10;;;1.20;99.90;;;;;;5003692;28;20052;-76
2023/04/04 08:37:09;;;;;;;0.20;0.20;;;1.30;99.90;;;;;;5003754;28;20061;-76
2023/04/04 08:39:35;;;;;;;0.10;0.10;;;1.20;99.90;;;;;;5003590;28;20038;-75
2023/04/04 08:42:06;;;;;;;0.10;0.10;;;1.20;99.90;;;;;;5003502;28;20029;-75
2023/04/04 08:44:34;;;;;;;0.17;0.17;;;1.30;99.90;;;;;;5003085;28;20017;-75
2023/04/04 08:47:04;;;;;;;0.10;0.10;;;1.30;99.90;;;;;;5002560;28;20025;-75
2023/04/04 08:49:32;;;;;;;0.20;0.20;;;1.30;99.90;;;;;;5002933;28;20149;-76
2023/04/04 08:52:00;;;;;;;0.20;0.20;;;1.40;99.90;;;;;;5001761;28;20650;-76
2023/04/04 08:54:29;;;;;;;0.20;0.20;;;1.40;99.90;;;;;;5003288;28;20133;-75
2023/04/04 08:56:55;;;;;;;0.20;0.20;;;1.40;99.90;;;;;;5002219;28;20034;-75
2023/04/04 08:59:21;;;;;;;0.32;0.32;;;1.50;99.90;;;;;;5003476;28;20045;-75
2023/04/04 09:01:47;;;;;;;0.20;0.20;;;1.60;99.90;;;;;;5004819;28;20040;-76
2023/04/04 09:04:15;;;;;;;0.13;0.13;;;1.20;99.90;;;;;;5009701;28;20022;-76
2023/04/04 09:06:45;;;;;;;0.10;0.10;;;1.20;99.90;;;;;;5009900;28;20042;-75
2023/04/04 09:09:13;;;;;;;0.33;0.33;;;1.10;99.90;;;;;;5010067;28;20093;-76
2023/04/04 09:11:40;;;;;;;0.20;0.20;;;1.40;99.90;;;;;;5013993;28;20078;-75
2023/04/04 09:14:12;;;;;;;0.20;0.20;;;1.50;99.90;;;;;;5013036;28;20034;-75
2023/04/04 09:16:37;;;;;;;0.10;0.10;;;1.50;99.90;;;;;;5030211;28;20136;-75
2023/04/04 09:19:03;;;;;;;0.20;0.20;;;1.50;99.90;;;;;;5012062;28;20060;-76
2023/04/04 09:21:32;;;;;;;1.52;1.45;;;1.60;99.90;;;;;;5032937;28;20412;-78
2023/04/04 09:24:08;;;;;;;0.10;0.10;;;1.50;99.90;;;;;;5030114;28;20041;-76
2023/04/04 09:26:47;;;;;;;0.17;0.17;;;1.60;99.90;;;;;;5029683;28;20696;-77
2023/04/04 09:29:16;;;;;;;0.10;0.10;;;1.60;99.90;;;;;;5025992;28;20744;-75
2023/04/04 09:31:45;;;;;;;0.20;0.20;;;1.60;99.90;;;;;;5027649;28;20025;-75
2023/04/04 09:34:16;;;;;;;0.13;0.13;;;1.70;99.90;;;;;;5025428;28;20022;-75
2023/04/04 09:36:42;;;;;;;0.20;0.20;;;;;;;;;;5026943;28;20017;-75
2023/04/04 09:39:08;;;;;;;0.10;0.10;;;;;;;;;;5024749;28;20719;-75
2023/04/04 09:41:42;;;;;;;0.10;0.10;;;1.80;99.90;;;;;;5009375;28;20044;-75
2023/04/04 09:44:11;;;;;;;0.10;0.10;;;1.90;99.90;;;;;;5025611;28;20056;-76
2023/04/04 09:46:38;;;;;;;0.10;0.10;;;1.80;99.90;;;;;;5024091;28;20534;-74
2023/04/04 09:49:04;;;;;;;0.20;0.20;;;2.00;99.90;;;;;;5024078;28;20788;-75
2023/04/04 09:51:37;;;;;;;0.20;0.20;;;1.90;99.90;;;;;;5027707;28;20107;-75
2023/04/04 09:54:05;;;;;;;0.10;0.10;;;2.00;99.90;;;;;;5011554;28;20586;-75
2023/04/04 09:56:33;;;;;;;0.32;0.32;;;2.00;99.90;;;;;;5010970;28;20542;-75
2023/04/04 09:59:01;;;;;;;0.10;0.10;;;2.10;99.90;;;;;;5007822;28;20701;-76
2023/04/04 10:01:35;;;;;;;0.10;0.10;;;2.40;99.90;;;;;;5015318;28;20023;-76
2023/04/04 10:04:02;;;;;;;;;;;2.40;99.90;;;;;;5028651;28;20462;-74
2023/04/04 10:06:37;;;;;;;0.10;0.10;;;2.20;99.90;;;;;;5052944;28;19947;-76
2023/04/04 10:09:07;;;;;;;0.20;0.20;;;1.90;99.90;;;;;;5033898;28;20036;-76
2023/04/04 10:11:34;;;;;;;0.10;0.10;;;2.60;99.90;;;;;;5013831;28;20018;-78
2023/04/04 10:14:05;;;;;;;0.20;0.20;;;1.80;99.90;;;;;;5012058;28;20068;-73
2023/04/04 10:16:36;;;;;;;0.77;0.77;;;1.80;99.90;;;;;;5011574;28;20764;-73
2023/04/04 10:19:04;;;;;;;0.10;0.10;;;1.80;99.90;;;;;;5004410;28;20030;-75
2023/04/04 10:21:34;;;;;;;0.10;0.10;;;2.60;99.90;;;;;;5013203;28;20268;-76
2023/04/04 10:24:08;;;;;;;2.83;2.72;;;1.60;99.90;;;;;;4994782;28;20026;-79
2023/04/04 10:26:43;;;;;;;1.60;1.58;;;1.70;99.90;;;;;;5007280;28;20633;-77
2023/04/04 10:29:09;;;;;;;0.20;0.20;;;1.60;99.90;;;;;;5010367;28;20077;-76
2023/04/04 10:31:47;;;;;;;0.10;0.10;;;1.70;99.90;;;;;;4975512;28;20080;-80
2023/04/04 10:34:35;;;;;;;0.17;0.17;;;1.80;99.90;;;;;;4991108;28;20097;-79
2023/04/04 10:37:07;;;;;;;0.10;0.10;;;1.90;99.90;;;;;;5003762;28;20038;-77
2023/04/04 10:40:00;;;;;;;0.20;0.20;;;0.40;99.90;;;;;;5004899;28;20018;-77
2023/04/04 10:42:34;;;;;;;0.20;0.20;;;2.00;99.90;;;;;;5013695;28;20018;-81
2023/04/04 10:45:01;;;;;;;;;;;2.00;99.90;;;;;;5016748;28;20018;-77
2023/04/04 10:47:28;;;;;;;0.10;0.10;;;2.10;99.90;;;;;;5017494;28;19996;-79
2023/04/04 10:49:55;;;;;;;0.10;0.10;;;2.20;99.90;;;;;;5020033;28;20010;-79
2023/04/04 10:52:24;;;;;;;0.10;0.10;;;2.20;99.90;;;;;;5016075;28;20168;-77
2023/04/04 10:55:11;;;;;;;0.17;0.17;;;2.20;99.90;;;;;;4989373;28;20092;-79
2023/04/04 10:57:49;;;;;;;0.20;0.20;;;2.10;99.90;;;;;;5013074;28;20021;-77
2023/04/04 11:00:22;;;;;;;0.10;0.10;;;1.80;99.90;;;;;;5016972;28;20049;-77
2023/04/04 11:03:01;;;;;;;0.10;0.10;;;1.70;99.90;;;;;;5015027;28;20053;-77
2023/04/04 11:06:00;;;;;;;8.23;7.43;;;1.60;99.90;;;;;;5017901;28;20077;-78
2023/04/04 11:08:27;;;;;;;0.10;0.10;;;1.80;99.90;;;;;;4996473;28;20022;-78
2023/04/04 11:10:56;;;;;;;0.10;0.10;;;2.30;99.90;;;;;;5008684;28;20025;-78
2023/04/04 11:13:34;;;;;;;0.10;0.10;;;2.30;99.90;;;;;;4996751;28;20605;-77
2023/04/04 11:16:16;;;;;;;0.77;0.77;;;2.30;99.90;;;;;;5036615;28;20041;-77
2023/04/04 11:18:44;;;;;;;0.10;0.10;;;2.20;99.90;;;;;;5027501;28;20022;-77
2023/04/04 11:21:19;;;;;;;0.10;0.10;;;2.20;99.90;;;;;;5029277;28;20017;-77
2023/04/04 11:23:48;;;;;;;0.32;0.32;;;2.10;99.90;;;;;;5032628;28;20064;-77
2023/04/04 11:26:28;;;;;;;0.13;0.13;;;2.10;99.90;;;;;;5029852;28;20688;-76
2023/04/04 11:29:02;;;;;;;0.20;0.20;;;2.20;99.90;;;;;;5026686;28;20109;-77
2023/04/04 11:31:33;;;;;;;0.20;0.20;;;2.20;99.90;;;;;;5028843;28;20075;-75
2023/04/04 11:34:07;;;;;;;0.20;0.20;;;2.10;99.90;;;;;;5018561;28;20203;-75
2023/04/04 11:36:35;;;;;;;;;;;2.20;99.90;;;;;;5022978;28;20025;-77
2023/04/04 11:39:27;;;;;;;0.20;0.20;;;2.40;99.90;;;;;;5030690;28;19905;-78
2023/04/04 11:42:13;;;;;;;0.20;0.20;;;2.60;99.90;;;;;;5026976;28;20044;-78
2023/04/04 11:44:48;;;;;;;0.20;0.20;;;3.20;99.90;;;;;;4949469;29;20058;-75
2023/04/04 11:47:18;;;;;;;0.15;0.15;;;2.70;99.90;;;;;;4951453;29;20043;-76
2023/04/04 11:49:53;;;;;;;0.10;0.10;;;2.50;99.90;;;;;;4953394;29;20054;-80
2023/04/04 11:52:22;;;;;;;0.20;0.20;;;2.60;99.90;;;;;;4957791;29;20055;-79
2023/04/04 11:54:49;;;;;;;0.75;0.75;;;2.80;99.90;;;;;;4956567;29;20023;-78
2023/04/04 11:57:40;;;;;;;0.10;0.10;;;2.90;99.90;;;;;;4949268;29;20027;-77
2023/04/04 12:00:07;;;;;;;0.10;0.10;;;2.40;99.90;;;;;;4954852;29;20923;-77
2023/04/04 12:02:35;;;;;;;0.10;0.10;;;3.00;99.90;;;;;;4939818;29;20046;-77
2023/04/04 12:05:01;;;;;;;0.10;0.10;;;3.00;99.90;;;;;;4947880;29;20023;-78
2023/04/04 12:07:30;;;;;;;0.20;0.20;;;2.90;99.90;;;;;;4941271;29;20027;-77
2023/04/04 12:09:56;;;;;;;0.95;0.95;;;2.80;99.90;;;;;;4946891;29;20051;-77
2023/04/04 12:12:22;;;;;;;0.10;0.10;;;2.80;99.90;;;;;;4941605;28;20031;-77
2023/04/04 12:14:48;;;;;;;0.10;0.10;;;2.80;99.90;;;;;;4944795;29;20374;-76
2023/04/04 12:17:15;;;;;;;14.30;13.68;;;2.80;99.90;;;;;;4942742;29;20750;-75
2023/04/04 12:19:43;;;;;;;0.10;0.10;;;2.90;99.90;;;;;;4945903;29;20066;-77
2023/04/04 12:22:09;;;;;;;0.10;0.10;;;2.90;99.90;;;;;;4982997;28;20616;-76
2023/04/04 12:24:36;;;;;;;0.10;0.10;;;2.90;99.90;;;;;;5006535;28;20032;-77
2023/04/04 12:27:03;;;;;;;0.10;0.10;;;3.00;99.90;;;;;;5004110;28;20025;-77
2023/04/04 12:29:35;;;;;;;0.10;0.10;;;3.00;99.90;;;;;;5004450;28;20034;-77
2023/04/04 12:32:05;;;;;;;0.00;0.00;;;2.90;99.90;;;;;;5006040;28;20018;-77
2023/04/04 12:34:34;;;;;;;0.10;0.10;;;3.20;99.90;;;;;;5011665;28;20033;-77
2023/04/04 12:37:01;;;;;;;0.10;0.10;;;3.30;99.90;;;;;;5009846;28;20080;-76
2023/04/04 12:39:28;;;;;;;0.65;0.65;;;3.40;99.90;;;;;;5011969;28;20022;-76
2023/04/04 12:41:58;;;;;;;0.10;0.10;;;3.40;99.90;;;;;;5007893;28;20021;-76
2023/04/04 12:44:38;;;;;;;0.10;0.10;;;3.50;99.90;;;;;;5012672;28;20032;-75
2023/04/04 12:47:09;;;;;;;2.83;2.72;;;3.50;99.90;;;;;;5008748;28;20696;-76
2023/04/04 12:49:38;;;;;;;13.57;13.02;;;3.50;99.90;;;;;;5007373;28;20886;-76
2023/04/04 12:52:06;;;;;;;0.00;0.00;;;3.70;99.90;;;;;;5007791;28;20018;-75
2023/04/04 12:54:43;;;;;;;0.00;0.00;;;3.70;99.90;;;;;;5009704;28;20415;-77
2023/04/04 12:57:11;;;;;;;0.10;0.10;;;3.80;99.90;;;;;;5006618;28;20089;-77
2023/04/04 12:59:38;;;;;;;0.10;0.10;;;3.70;99.90;;;;;;5004717;28;20049;-76
2023/04/04 13:02:11;;;;;;;0.10;0.10;;;3.70;99.90;;;;;;5005042;28;20041;-76
2023/04/04 13:04:38;;;;;;;0.10;0.10;;;3.60;99.90;;;;;;5007511;28;20049;-77
2023/04/04 13:07:26;;;;;;;0.10;0.10;;;3.50;99.90;;;;;;5011248;28;20051;-76
2023/04/04 13:10:03;;;;;;;0.10;0.10;;;3.30;99.90;;;;;;5010490;28;20045;-76
2023/04/04 13:12:57;;;;;;;0.10;0.10;;;3.20;99.90;;;;;;5014536;28;20073;-77
2023/04/04 13:15:43;;;;;;;0.10;0.10;;;3.20;99.90;;;;;;5012157;28;20042;-76